Time;durP1;ratioP1;P1;durP2;ratioP2;P2;SDS_P1;SDS_P2;PMS_P1;PMS_P2;Temp;Humidity;BMP_temperature;BMP_pressure;BME280_temperature;BME280_humidity;BME280_pressure;Samples;Min_cycle;Max_cycle;Signal;HPM_P1;HPM_P2
2021/05/06 00:33:50;;;;;;;6.60;2.00;;;;;;;7.70;64.13;99440.91;1741331;80;26194;-72
2021/05/06 00:36:17;;;;;;;3.83;2.20;;;;;;;7.68;64.26;99435.46;1739981;80;25796;-73
2021/05/06 00:38:51;;;;;;;7.87;2.83;;;;;;;7.67;64.33;99440.00;1763718;80;26370;-73
2021/05/06 01:05:52;;;;;;;3.72;1.70;;;;;;;7.51;64.79;99467.44;1741863;80;25380;-72
2021/05/06 01:13:30;;;;;;;3.95;1.30;;;;;;;7.51;64.63;99476.76;1693275;82;25409;-72
2021/05/06 01:15:56;;;;;;;6.03;1.30;;;;;;;7.53;64.22;99469.39;1699485;83;25785;-72
2021/05/06 01:18:24;;;;;;;5.12;1.65;;;;;;;7.52;64.27;99473.92;1714091;82;25819;-73
2021/05/06 01:23:34;;;;;;;4.08;1.62;;;;;;;7.57;63.81;99477.34;1794163;79;25659;-72
2021/05/06 01:28:58;;;;;;;3.72;1.50;;;;;;;7.54;63.83;99495.03;1864552;75;25711;-72
2021/05/06 01:31:28;;;;;;;5.33;1.62;;;;;;;7.46;63.64;99493.86;1789736;78;25851;-71
2021/05/06 01:34:08;;;;;;;4.15;1.60;;;;;;;7.43;63.78;99495.06;1762189;78;27612;-72
2021/05/06 01:36:43;;;;;;;6.10;1.90;;;;;;;7.41;63.76;99500.26;1810270;78;25854;-72
2021/05/06 01:42:02;;;;;;;4.47;1.42;;;;;;;7.35;63.81;99500.53;1731142;80;25837;-72
2021/05/06 01:49:56;;;;;;;7.03;1.50;;;;;;;7.28;63.44;99499.65;1771565;80;25901;-73
2021/05/06 02:00:27;;;;;;;4.60;1.07;;;;;;;7.28;63.64;99501.48;1826082;77;25803;-73
2021/05/06 02:02:53;;;;;;;3.33;1.47;;;;;;;7.23;63.23;99494.06;1786088;80;26174;-73
2021/05/06 02:05:22;;;;;;;3.67;2.08;;;;;;;7.20;63.59;99498.46;1738446;80;28417;-72
2021/05/06 02:07:50;;;;;;;7.12;1.40;;;;;;;7.19;63.50;99493.30;1737872;80;25854;-72
2021/05/06 02:10:24;;;;;;;4.12;1.50;;;;;;;7.16;63.70;99505.69;1762323;80;26316;-73
2021/05/06 02:12:52;;;;;;;5.60;1.50;;;;;;;7.14;63.75;99505.05;1786028;80;25808;-72
2021/05/06 02:15:26;;;;;;;2.80;1.50;;;;;;;7.11;63.83;99506.26;1732411;80;25645;-73
2021/05/06 02:17:54;;;;;;;7.78;1.60;;;;;;;7.10;63.89;99515.78;1738227;80;27538;-73
2021/05/06 02:20:21;;;;;;;10.70;1.50;;;;;;;7.06;64.05;99514.52;1736999;80;25869;-71
2021/05/06 02:22:51;;;;;;;6.87;1.80;;;;;;;7.05;64.20;99508.86;1789397;80;25794;-74
2021/05/06 02:25:20;;;;;;;3.62;1.45;;;;;;;7.04;64.41;99516.02;1711848;80;25619;-72
2021/05/06 02:27:49;;;;;;;3.77;1.15;;;;;;;7.01;64.39;99517.74;1763307;80;25896;-73
2021/05/06 02:30:18;;;;;;;7.47;2.15;;;;;;;6.98;64.51;99521.61;1761953;80;27321;-72
2021/05/06 02:32:46;;;;;;;5.33;1.67;;;;;;;6.96;64.57;99527.63;1758776;80;25860;-72
2021/05/06 02:35:14;;;;;;;3.42;1.75;;;;;;;6.96;64.64;99526.80;1732096;80;25834;-73
2021/05/06 02:37:44;;;;;;;6.50;2.00;;;;;;;6.96;64.73;99526.80;1737872;80;25927;-73
2021/05/06 02:40:13;;;;;;;4.23;1.73;;;;;;;6.93;64.66;99527.16;1758614;80;25589;-73
2021/05/06 02:42:40;;;;;;;4.20;1.00;;;;;;;6.91;64.75;99527.36;1789854;80;27511;-73
2021/05/06 02:45:10;;;;;;;7.15;1.75;;;;;;;6.90;64.82;99531.05;1653644;82;26180;-73
2021/05/06 02:47:37;;;;;;;5.40;1.92;;;;;;;6.87;64.62;99530.59;1672116;83;25838;-73
2021/05/06 02:50:10;;;;;;;9.30;2.40;;;;;;;6.83;64.44;99534.64;1706800;82;25956;-73
2021/05/06 02:52:45;;;;;;;8.98;2.42;;;;;;;6.80;64.28;99537.17;1749146;81;25798;-71
2021/05/06 02:55:15;;;;;;;6.65;1.92;;;;;;;6.77;64.29;99545.55;1694882;81;27556;-72
2021/05/06 02:57:52;;;;;;;6.70;2.47;;;;;;;6.74;64.06;99541.08;1717356;82;25923;-72
2021/05/06 03:03:03;;;;;;;5.17;1.70;;;;;;;6.67;63.16;99540.20;1737801;81;25798;-72
2021/05/06 03:05:35;;;;;;;10.70;1.98;;;;;;;6.66;63.42;99546.03;1672160;82;26444;-73
2021/05/06 03:08:12;;;;;;;;;;;;;;;6.63;63.58;99552.23;1704191;82;28468;-73
2021/05/06 03:13:58;;;;;;;20.02;10.65;;;;;;;6.53;63.51;99551.19;1685563;82;25724;-72
2021/05/06 03:22:40;;;;;;;30.20;15.32;;;;;;;6.48;63.52;99564.21;1721900;81;28557;-72
2021/05/06 03:24:01;;;;;;;16.17;9.53;;;;;;;6.48;63.48;99568.20;1707493;81;25768;-73
2021/05/06 03:26:31;;;;;;;7.37;3.52;;;;;;;6.48;63.65;99561.55;1719517;81;26355;-72
2021/05/06 03:42:28;;;;;;;6.03;2.25;;;;;;;6.47;64.37;99597.16;1782676;79;25804;-73
2021/05/06 03:50:44;;;;;;;7.35;2.08;;;;;;;6.62;64.72;99620.59;1775840;78;28468;-72
2021/05/06 04:15:25;;;;;;;6.58;2.58;;;;;;;6.69;65.91;99669.91;1799319;78;25993;-73
2021/05/06 04:17:39;;;;;;;11.83;3.40;;;;;;;6.66;65.95;99670.26;1776433;78;26852;-73
2021/05/06 04:31:23;;;;;;;6.95;2.47;;;;;;;6.73;65.50;99677.84;1760680;80;25813;-74
2021/05/06 04:39:12;;;;;;;8.03;2.70;;;;;;;6.83;65.30;99701.00;1709389;81;25816;-72
2021/05/06 04:41:54;;;;;;;11.90;2.98;;;;;;;6.87;65.25;99694.29;1717581;81;25847;-72
2021/05/06 04:45:00;;;;;;;8.18;2.70;;;;;;;6.90;64.59;99699.26;1714580;81;26431;-73
2021/05/06 04:54:57;;;;;;;9.03;2.50;;;;;;;7.04;63.66;99702.39;1687517;83;25836;-72
2021/05/06 05:05:11;;;;;;;5.05;2.35;;;;;;;7.22;63.09;99711.33;1748714;78;27647;-73
2021/05/06 05:07:44;;;;;;;15.32;3.80;;;;;;;7.30;63.69;99713.88;1806185;78;25790;-72
2021/05/06 05:10:20;;;;;;;8.93;3.35;;;;;;;7.33;63.37;99714.34;1754249;78;25898;-73
2021/05/06 05:18:05;;;;;;;9.83;3.55;;;;;;;7.51;63.55;99719.23;1762792;78;27635;-72
2021/05/06 05:25:51;;;;;;;8.13;2.70;;;;;;;7.66;62.80;99728.84;1744409;78;26652;-73
2021/05/06 05:28:18;;;;;;;8.90;2.10;;;;;;;7.64;61.63;99728.21;1800698;78;25731;-73
2021/05/06 05:30:45;;;;;;;5.40;2.33;;;;;;;7.63;61.43;99728.41;1777153;78;27343;-73
2021/05/06 05:33:15;;;;;;;9.03;2.30;;;;;;;7.64;61.24;99723.38;1793664;78;26087;-73
2021/05/06 05:35:45;;;;;;;6.97;2.08;;;;;;;7.66;61.05;99727.52;1744053;78;25793;-73
2021/05/06 05:38:33;;;;;;;12.78;2.15;;;;;;;7.69;60.96;99728.98;1775070;78;25778;-73
2021/05/06 05:54:35;;;;;;;10.18;3.02;;;;;;;7.95;60.46;99721.75;1788892;80;26070;-73
2021/05/06 05:57:01;;;;;;;9.23;2.67;;;;;;;7.97;59.89;99734.38;1733004;80;28611;-73
2021/05/06 05:59:29;;;;;;;8.15;2.92;;;;;;;8.00;60.55;99732.68;1758325;80;25764;-72
2021/05/06 06:01:56;;;;;;;10.53;2.85;;;;;;;8.10;60.69;99736.67;1785023;80;25731;-72
2021/05/06 06:04:23;;;;;;;5.65;2.25;;;;;;;8.19;60.75;99735.50;1789083;80;25966;-73
2021/05/06 06:06:51;;;;;;;7.85;2.40;;;;;;;8.31;60.42;99731.84;1736568;80;25869;-72
2021/05/06 06:09:18;;;;;;;8.35;2.80;;;;;;;8.38;60.27;99742.06;1755813;80;27781;-72
2021/05/06 06:11:45;;;;;;;7.03;2.50;;;;;;;8.38;59.65;99740.73;1762147;80;25833;-73
2021/05/06 06:14:15;;;;;;;10.28;3.33;;;;;;;8.35;59.19;99737.94;1789163;80;25803;-73
2021/05/06 06:16:42;;;;;;;8.88;2.70;;;;;;;8.31;59.08;99746.52;1718026;80;25883;-72
2021/05/06 06:19:09;;;;;;;10.50;3.40;;;;;;;8.26;58.30;99747.09;1781828;80;25846;-73
2021/05/06 06:24:06;;;;;;;5.37;2.85;;;;;;;8.37;59.74;99749.24;1755297;80;25786;-72
2021/05/06 06:26:34;;;;;;;10.82;3.15;;;;;;;8.49;59.89;99761.53;1717562;80;25897;-73
2021/05/06 06:29:09;;;;;;;8.75;2.30;;;;;;;8.53;58.24;99750.28;1781299;80;26085;-73
2021/05/06 06:31:41;;;;;;;5.92;2.55;;;;;;;8.53;58.46;99755.61;1761544;80;25755;-73
2021/05/06 06:34:14;;;;;;;7.40;2.37;;;;;;;8.60;58.04;99758.87;1825319;77;26405;-74
2021/05/06 06:36:46;;;;;;;8.90;3.25;;;;;;;8.59;58.35;99756.70;1763179;80;25775;-73
2021/05/06 06:39:16;;;;;;;9.23;2.85;;;;;;;8.72;59.06;99761.30;1759305;79;27639;-73
2021/05/06 06:41:44;;;;;;;7.33;3.07;;;;;;;8.79;57.10;99754.17;1749736;80;25827;-73
2021/05/06 06:44:14;;;;;;;5.10;2.35;;;;;;;8.79;57.02;99754.97;1741589;80;26415;-74
2021/05/06 06:46:42;;;;;;;8.18;2.62;;;;;;;8.84;57.31;99741.87;1776866;80;25774;-73
2021/05/06 06:49:12;;;;;;;5.37;2.90;;;;;;;8.89;56.70;99769.33;1664355;81;26208;-72
2021/05/06 06:51:39;;;;;;;4.58;2.47;;;;;;;8.86;55.41;99763.03;1711726;81;27556;-72
2021/05/06 06:54:07;;;;;;;6.25;2.00;;;;;;;8.90;56.18;99761.11;1685849;81;25907;-72
2021/05/06 06:56:34;;;;;;;6.72;2.08;;;;;;;9.00;56.46;99762.11;1734844;81;25775;-72
2021/05/06 06:59:01;;;;;;;8.25;2.10;;;;;;;9.08;56.46;99772.13;1717647;81;26356;-73
2021/05/06 07:01:29;;;;;;;4.75;2.20;;;;;;;9.06;53.42;99764.81;1718090;81;25830;-73
2021/05/06 07:03:56;;;;;;;9.38;2.40;;;;;;;9.04;54.11;99768.20;1699878;82;27303;-72
2021/05/06 07:06:23;;;;;;;8.18;2.50;;;;;;;9.04;55.65;99783.39;1729432;81;25837;-72
2021/05/06 07:08:51;;;;;;;5.67;2.52;;;;;;;9.12;55.74;99782.72;1653760;83;25815;-73
2021/05/06 07:11:18;;;;;;;7.97;2.60;;;;;;;9.18;55.59;99777.09;1701740;82;26159;-73
2021/05/06 07:13:45;;;;;;;7.40;2.75;;;;;;;9.24;54.93;99770.44;1701350;82;25859;-73
2021/05/06 07:16:13;;;;;;;9.00;3.40;;;;;;;9.29;55.33;99782.71;1732172;82;27543;-72
2021/05/06 07:18:41;;;;;;;5.08;2.80;;;;;;;9.39;55.38;99782.86;1708929;82;25896;-72
2021/05/06 07:21:08;;;;;;;7.60;2.65;;;;;;;9.46;54.45;99779.69;1700302;82;25689;-72
2021/05/06 07:23:35;;;;;;;9.68;2.98;;;;;;;9.42;54.41;99789.97;1700633;82;26434;-72
2021/05/06 07:26:04;;;;;;;6.47;2.70;;;;;;;9.51;55.06;99792.78;1731660;82;25888;-72
2021/05/06 07:28:38;;;;;;;11.90;3.05;;;;;;;9.61;55.08;99804.43;1688563;81;28397;-74
2021/05/06 07:31:12;;;;;;;5.67;2.15;;;;;;;9.68;54.65;99799.94;1708296;81;25782;-73
2021/05/06 07:33:40;;;;;;;4.72;2.17;;;;;;;9.83;54.14;99801.95;1682224;81;26080;-73
2021/05/06 07:36:10;;;;;;;9.03;2.33;;;;;;;9.88;51.66;99792.28;1741825;81;25769;-74
2021/05/06 07:38:38;;;;;;;10.23;2.52;;;;;;;9.83;52.66;99809.97;1657214;81;26105;-74
2021/05/06 07:41:06;;;;;;;7.17;2.30;;;;;;;9.73;52.59;99805.52;1721033;81;29016;-74
2021/05/06 07:43:33;;;;;;;4.65;2.00;;;;;;;9.75;52.78;99799.46;1695172;82;25902;-73
2021/05/06 07:46:01;;;;;;;5.37;2.10;;;;;;;9.83;51.29;99805.45;1724452;82;25845;-74
2021/05/06 07:48:29;;;;;;;8.08;2.00;;;;;;;9.89;51.69;99807.32;1650634;81;26297;-75
2021/05/06 07:50:57;;;;;;;4.58;2.17;;;;;;;9.98;50.65;99803.95;1735202;81;25793;-74
2021/05/06 07:53:34;;;;;;;5.50;1.92;;;;;;;9.96;49.70;99801.98;1692716;82;27345;-74
2021/05/06 07:55:56;;;;;;;10.95;2.45;;;;;;;9.98;51.36;99817.33;1738752;81;26509;-74
2021/05/06 07:58:23;;;;;;;4.83;2.00;;;;;;;9.98;51.36;99817.33;1674073;81;26254;-74
2021/05/06 08:00:51;;;;;;;9.83;2.35;;;;;;;10.03;51.93;99819.69;1724837;81;26363;-75
2021/05/06 08:03:18;;;;;;;7.17;2.40;;;;;;;10.18;52.57;99816.07;1690862;81;25834;-74
2021/05/06 08:05:45;;;;;;;5.95;2.52;;;;;;;10.28;49.90;99826.69;1744704;81;27535;-75
2021/05/06 08:08:15;;;;;;;5.67;2.47;;;;;;;10.26;50.30;99819.38;1674879;81;26364;-74
2021/05/06 08:10:45;;;;;;;6.17;2.83;;;;;;;10.33;48.46;99826.08;1686351;81;25454;-74
2021/05/06 08:13:15;;;;;;;8.13;2.80;;;;;;;10.20;48.94;99818.83;1723039;81;26416;-75
2021/05/06 08:15:52;;;;;;;6.40;2.15;;;;;;;10.14;49.82;99819.64;1742111;81;26248;-75
2021/05/06 08:18:21;;;;;;;7.30;2.83;;;;;;;10.16;48.31;99836.32;1693598;81;32647;-74
2021/05/06 08:20:49;;;;;;;8.78;2.80;;;;;;;10.04;48.93;99833.91;1682505;81;25854;-75
2021/05/06 08:23:17;;;;;;;5.65;2.17;;;;;;;9.96;48.90;99844.29;1723824;81;26432;-75
2021/05/06 08:25:44;;;;;;;5.97;2.25;;;;;;;9.89;49.80;99835.91;1742497;81;25797;-76
2021/05/06 08:28:12;;;;;;;7.22;2.22;;;;;;;10.02;50.01;99835.45;1692990;81;26064;-75
2021/05/06 08:30:39;;;;;;;6.92;2.72;;;;;;;10.28;49.50;99847.27;1719050;81;27600;-75
2021/05/06 08:33:06;;;;;;;4.97;2.05;;;;;;;10.39;49.04;99847.48;1742511;80;25758;-75
2021/05/06 08:35:34;;;;;;;6.37;1.95;;;;;;;10.42;47.87;99844.91;1739985;81;26566;-75
2021/05/06 08:38:01;;;;;;;11.30;2.10;;;;;;;10.36;48.46;99844.39;1675468;81;25848;-74
2021/05/06 08:40:29;;;;;;;5.35;1.98;;;;;;;10.28;47.02;99840.07;1725430;81;25870;-75
2021/05/06 08:42:57;;;;;;;6.33;2.05;;;;;;;10.31;48.38;99851.70;1717016;81;27382;-74
2021/05/06 08:45:30;;;;;;;5.30;2.45;;;;;;;10.40;46.71;99837.60;1737731;81;25762;-76
2021/05/06 08:47:56;;;;;;;10.18;2.65;;;;;;;10.49;47.46;99844.42;1670038;83;25857;-75
2021/05/06 08:50:23;;;;;;;8.60;2.17;;;;;;;10.63;48.03;99840.20;1718151;82;25915;-76
2021/05/06 08:52:52;;;;;;;9.25;2.22;;;;;;;10.77;49.75;99847.23;1712695;81;26019;-77
2021/05/06 08:55:19;;;;;;;8.58;2.67;;;;;;;10.98;48.83;99845.34;1744328;81;27632;-75
2021/05/06 08:57:49;;;;;;;13.75;2.85;;;;;;;11.09;46.80;99845.55;1672434;81;25833;-74
2021/05/06 09:00:18;;;;;;;5.72;2.00;;;;;;;11.16;47.67;99850.37;1748404;80;25800;-74
2021/05/06 09:02:47;;;;;;;7.42;2.50;;;;;;;11.25;48.29;99846.95;1742249;81;25793;-75
2021/05/06 09:05:15;;;;;;;10.00;2.87;;;;;;;11.32;46.44;99843.23;1741754;81;25818;-75
2021/05/06 09:07:44;;;;;;;7.37;2.62;;;;;;;11.35;45.52;99849.54;1694722;81;27546;-74
2021/05/06 09:10:41;;;;;;;3.60;2.00;;;;;;;11.39;46.14;99842.72;1743440;80;25739;-75
2021/05/06 09:13:28;;;;;;;6.75;1.90;;;;;;;11.42;44.10;99853.52;1723542;81;25857;-75
2021/05/06 09:15:56;;;;;;;9.08;2.20;;;;;;;11.31;42.69;99849.63;1743942;81;26106;-75
2021/05/06 09:18:44;;;;;;;3.98;1.75;;;;;;;11.31;45.08;99852.84;1696604;81;25861;-74
2021/05/06 09:21:31;;;;;;;6.03;2.20;;;;;;;11.40;45.46;99851.05;1722900;81;28445;-74
2021/05/06 09:27:03;;;;;;;9.83;1.65;;;;;;;11.54;43.51;99842.46;1829040;77;25816;-74
2021/05/06 09:29:36;;;;;;;7.35;1.75;;;;;;;11.54;44.75;99841.95;1797656;78;26283;-74
2021/05/06 09:32:20;;;;;;;5.58;1.70;;;;;;;11.59;43.98;99847.48;1762716;79;27538;-73
2021/05/06 09:34:51;;;;;;;2.72;1.55;;;;;;;11.62;44.05;99859.15;1768719;79;26393;-74
2021/05/06 09:37:29;;;;;;;7.45;2.10;;;;;;;11.65;43.66;99857.37;1773706;79;25740;-73
2021/05/06 09:40:04;;;;;;;10.43;2.10;;;;;;;11.66;43.60;99859.54;1785523;79;25744;-75
2021/05/06 09:42:47;;;;;;;11.45;3.55;;;;;;;11.72;43.96;99852.02;1742760;81;26131;-74
2021/05/06 09:45:26;;;;;;;6.78;1.85;;;;;;;11.81;44.93;99857.45;1724778;82;27598;-75
2021/05/06 09:48:15;;;;;;;5.78;2.00;;;;;;;11.92;43.86;99859.48;1750984;80;25845;-75
2021/05/06 09:50:47;;;;;;;3.00;1.75;;;;;;;12.04;45.04;99855.08;1744934;81;25844;-75
2021/05/06 09:53:18;;;;;;;6.12;2.27;;;;;;;12.13;43.13;99863.70;1754118;80;25875;-75
2021/05/06 09:55:46;;;;;;;7.97;2.20;;;;;;;12.10;42.69;99852.07;1648278;82;26379;-76
2021/05/06 09:58:24;;;;;;;5.22;1.65;;;;;;;12.11;45.01;99868.47;1697207;81;28289;-74
2021/05/06 10:00:52;;;;;;;6.15;1.95;;;;;;;12.29;44.94;99853.31;1746079;81;26008;-75
2021/05/06 10:03:32;;;;;;;5.95;2.05;;;;;;;12.50;45.36;99860.70;1722490;80;25752;-75
2021/05/06 10:06:18;;;;;;;6.17;1.90;;;;;;;12.53;43.42;99871.03;1717892;81;25823;-75
2021/05/06 10:08:46;;;;;;;7.60;2.83;;;;;;;12.55;42.18;99860.38;1712982;81;25537;-74
2021/05/06 10:11:17;;;;;;;6.12;1.80;;;;;;;12.65;43.39;99862.56;1741834;81;28463;-75
2021/05/06 10:13:46;;;;;;;;;;;;;;;12.69;42.67;99865.11;1713498;81;25890;-75
2021/05/06 10:16:16;;;;;;;7.72;2.10;;;;;;;12.70;43.20;99870.26;1745241;81;25825;-75
2021/05/06 10:18:44;;;;;;;2.62;1.37;;;;;;;12.57;41.67;99874.92;1722107;81;26414;-75
2021/05/06 10:21:15;;;;;;;7.62;1.70;;;;;;;12.55;41.74;99860.38;1706142;81;25877;-76
2021/05/06 10:23:53;;;;;;;7.83;2.00;;;;;;;12.63;41.50;99869.50;1742435;81;27792;-75
2021/05/06 10:26:23;;;;;;;5.17;2.00;;;;;;;12.66;40.35;99870.39;1735117;81;25866;-74
2021/05/06 10:28:52;;;;;;;7.43;2.80;;;;;;;12.62;40.02;99868.36;1726751;82;25725;-75
2021/05/06 10:31:20;;;;;;;8.25;2.15;;;;;;;12.57;39.99;99869.03;1729546;81;25912;-75
2021/05/06 10:33:47;;;;;;;10.32;2.80;;;;;;;12.56;40.80;99867.89;1728846;81;25840;-77
2021/05/06 10:36:15;;;;;;;11.70;2.70;;;;;;;12.63;41.21;99870.02;1730127;81;50272;-72
2021/05/06 10:38:44;;;;;;;5.90;1.92;;;;;;;12.74;41.77;99863.95;1678144;83;26539;-73
2021/05/06 10:41:29;;;;;;;5.17;1.92;;;;;;;12.86;39.99;99872.42;1681475;82;25765;-74
2021/05/06 10:44:04;;;;;;;6.50;1.70;;;;;;;12.84;38.96;99870.99;1697701;81;25921;-75
2021/05/06 10:46:58;;;;;;;7.05;2.20;;;;;;;12.84;40.59;99883.92;1729585;82;26058;-73
2021/05/06 10:49:29;;;;;;;7.83;1.80;;;;;;;12.88;41.78;99878.41;1703941;82;27414;-74
2021/05/06 10:52:02;;;;;;;;;;;;;;;12.99;39.46;99878.21;1729887;82;26203;-73
2021/05/06 10:54:35;;;;;;;5.78;1.77;;;;;;;12.98;38.92;99866.63;1698811;84;25936;-72
2021/05/06 10:57:19;;;;;;;5.72;1.52;;;;;;;12.96;40.05;99870.06;1673564;84;25845;-74
2021/05/06 10:59:48;;;;;;;4.80;1.40;;;;;;;13.01;38.92;99886.87;1708868;83;26164;-74
2021/05/06 11:02:45;;;;;;;5.00;1.77;;;;;;;12.97;37.68;99865.52;1637415;83;27559;-73
2021/05/06 11:05:24;;;;;;;6.55;1.70;;;;;;;13.02;38.65;99867.03;1831469;77;25669;-73
2021/05/06 11:08:09;;;;;;;3.72;1.67;;;;;;;12.98;38.91;99877.38;1793352;78;26638;-73
2021/05/06 11:10:50;;;;;;;3.92;1.80;;;;;;;13.04;40.43;99868.46;1772589;79;27592;-75
2021/05/06 11:13:21;;;;;;;6.20;1.80;;;;;;;13.26;40.94;99872.13;1768339;78;25889;-74
2021/05/06 11:15:50;;;;;;;4.22;1.70;;;;;;;13.31;38.97;99884.36;1772686;78;25891;-74
2021/05/06 11:18:46;;;;;;;7.00;2.00;;;;;;;13.22;39.68;99874.41;1790899;79;25776;-73
2021/05/06 11:21:36;;;;;;;4.15;1.80;;;;;;;13.24;37.55;99886.31;1749743;78;25863;-73
2021/05/06 11:24:19;;;;;;;4.72;1.80;;;;;;;13.23;39.57;99865.83;1772798;78;27607;-73
2021/05/06 11:27:16;;;;;;;6.70;1.98;;;;;;;13.31;38.02;99876.30;1792169;78;25752;-74
2021/05/06 11:29:43;;;;;;;11.80;1.65;;;;;;;13.31;37.85;99869.05;1798109;78;25660;-73
2021/05/06 11:32:24;;;;;;;4.47;1.75;;;;;;;13.26;38.70;99880.19;1671932;82;25864;-74
2021/05/06 11:34:53;;;;;;;3.77;1.60;;;;;;;13.18;36.69;99873.72;1691344;82;25388;-74
2021/05/06 11:37:26;;;;;;;7.83;2.00;;;;;;;13.09;36.89;99877.22;1760237;80;27312;-74
2021/05/06 11:40:04;;;;;;;5.08;1.80;;;;;;;13.17;38.21;99871.58;1746495;81;25922;-74
2021/05/06 11:42:38;;;;;;;2.72;1.52;;;;;;;13.25;39.01;99869.95;1729822;81;25805;-73
2021/05/06 11:45:20;;;;;;;8.65;2.05;;;;;;;13.38;38.93;99868.98;1722605;81;26797;-73
2021/05/06 11:47:49;;;;;;;7.58;1.72;;;;;;;13.35;37.94;99865.39;1741850;81;25835;-74
2021/05/06 11:50:27;;;;;;;4.40;1.80;;;;;;;13.36;39.29;99864.36;1737262;82;27527;-73
2021/05/06 11:52:56;;;;;;;4.05;2.08;;;;;;;13.55;39.62;99864.16;1730251;81;25816;-73
2021/05/06 11:55:41;;;;;;;6.22;1.72;;;;;;;13.74;39.27;99847.47;1711441;82;25959;-74
2021/05/06 11:58:10;;;;;;;3.77;1.70;;;;;;;13.87;37.24;99863.47;1717777;81;26272;-76
2021/05/06 12:00:39;;;;;;;4.20;1.67;;;;;;;13.89;36.33;99857.34;1750624;81;25729;-73
2021/05/06 12:03:10;;;;;;;5.75;1.80;;;;;;;13.92;37.50;99844.23;1688351;82;27613;-73
2021/05/06 12:05:59;;;;;;;7.75;1.85;;;;;;;14.04;37.54;99854.24;1767211;80;26342;-74
2021/05/06 12:08:32;;;;;;;5.70;1.75;;;;;;;14.15;37.65;99840.02;1703641;82;25970;-74
2021/05/06 12:11:03;;;;;;;7.85;2.50;;;;;;;14.20;38.54;99843.66;1744968;80;26164;-74
2021/05/06 12:13:34;;;;;;;5.90;1.90;;;;;;;14.27;37.37;99848.95;1703080;81;26141;-73
2021/05/06 12:16:18;;;;;;;3.33;1.57;;;;;;;14.26;37.51;99845.45;1723492;81;27598;-74
2021/05/06 12:19:01;;;;;;;6.45;2.40;;;;;;;14.30;37.20;99837.77;1698363;81;26419;-74
2021/05/06 12:21:33;;;;;;;5.47;1.87;;;;;;;14.35;35.98;99833.31;1745608;81;25757;-75
2021/05/06 12:24:00;;;;;;;8.65;1.60;;;;;;;14.36;37.43;99840.88;1702589;81;25869;-75
2021/05/06 12:26:28;;;;;;;5.50;2.15;;;;;;;14.34;35.77;99838.42;1722588;82;26328;-74
2021/05/06 12:28:56;;;;;;;2.10;1.42;;;;;;;14.28;36.94;99843.36;1708090;82;28294;-74
2021/05/06 12:31:25;;;;;;;5.95;1.42;;;;;;;14.35;37.43;99837.36;1741019;81;26147;-75
2021/05/06 12:33:52;;;;;;;4.20;1.55;;;;;;;14.38;37.01;99832.04;1710413;81;26311;-74
2021/05/06 12:36:20;;;;;;;5.28;1.87;;;;;;;14.28;36.31;99833.10;1733481;81;25781;-74
2021/05/06 12:38:49;;;;;;;4.80;1.52;;;;;;;14.21;36.87;99826.97;1712188;82;25815;-73
2021/05/06 12:41:18;;;;;;;2.77;1.50;;;;;;;14.24;36.66;99828.67;1745097;81;28383;-75
2021/05/06 12:43:49;;;;;;;7.03;2.10;;;;;;;14.09;36.00;99823.42;1687841;81;25907;-74
2021/05/06 12:46:25;;;;;;;4.45;1.72;;;;;;;13.89;37.50;99829.89;1697150;81;26015;-74
2021/05/06 12:48:59;;;;;;;5.22;1.80;;;;;;;13.75;38.00;99831.64;1716923;81;25850;-75
2021/05/06 12:51:33;;;;;;;6.47;2.15;;;;;;;13.66;38.54;99835.16;1750695;80;25716;-73
2021/05/06 12:54:11;;;;;;;4.83;2.25;;;;;;;13.76;39.25;99831.41;1721001;80;27542;-75
2021/05/06 12:56:41;;;;;;;3.85;2.60;;;;;;;13.80;38.92;99831.77;1698880;81;25859;-74
2021/05/06 12:59:28;;;;;;;5.67;2.60;;;;;;;13.69;39.67;99837.90;1737201;80;25625;-75
2021/05/06 13:02:11;;;;;;;3.67;1.85;;;;;;;13.76;40.84;99848.91;1734850;81;26128;-76
2021/05/06 13:04:51;;;;;;;4.80;2.17;;;;;;;13.88;40.76;99843.05;1724875;81;25995;-74
2021/05/06 13:07:20;;;;;;;5.22;2.00;;;;;;;14.00;40.91;99843.63;1696039;81;28442;-75
2021/05/06 13:09:51;;;;;;;6.40;2.60;;;;;;;14.02;39.55;99848.27;1707735;82;26085;-75
2021/05/06 13:12:26;;;;;;;5.67;2.02;;;;;;;14.05;39.76;99847.83;1741768;81;25696;-75
2021/05/06 13:14:57;;;;;;;4.42;1.98;;;;;;;14.11;39.24;99856.34;1699843;81;25969;-74
2021/05/06 13:17:37;;;;;;;3.52;2.60;;;;;;;14.20;39.98;99845.00;1830521;77;25842;-75
2021/05/06 13:20:27;;;;;;;7.42;1.77;;;;;;;14.15;39.83;99844.88;1802456;78;25645;-75
2021/05/06 13:23:11;;;;;;;3.42;1.70;;;;;;;14.16;39.30;99843.81;1781157;78;27611;-75
2021/05/06 13:25:46;;;;;;;5.08;1.57;;;;;;;14.22;39.48;99848.28;1759193;78;26007;-74
2021/05/06 13:28:32;;;;;;;2.00;1.60;;;;;;;14.28;38.30;99839.31;1761598;79;26188;-74
2021/05/06 13:31:25;;;;;;;7.85;2.20;;;;;;;14.31;39.86;99835.34;1797963;78;25804;-74
2021/05/06 13:34:15;;;;;;;4.75;1.92;;;;;;;14.49;40.95;99839.34;1744745;78;25801;-73
2021/05/06 13:37:04;;;;;;;5.35;2.22;;;;;;;14.62;39.52;99841.32;1782703;78;27648;-73
2021/05/06 13:39:35;;;;;;;3.87;2.00;;;;;;;14.66;39.22;99847.06;1771166;78;25810;-74
2021/05/06 13:42:02;;;;;;;6.47;2.02;;;;;;;14.65;38.72;99838.66;1778571;78;25875;-73
2021/05/06 13:44:30;;;;;;;3.05;1.80;;;;;;;14.71;38.34;99836.94;1745559;78;26132;-76
2021/05/06 13:47:02;;;;;;;2.55;1.65;;;;;;;14.71;37.97;99835.59;1778489;78;25726;-74
2021/05/06 13:49:31;;;;;;;6.92;2.00;;;;;;;14.71;38.43;99827.50;1771291;78;27418;-74
2021/05/06 13:52:01;;;;;;;4.12;2.20;;;;;;;14.77;38.72;99827.39;1792528;78;25623;-74
2021/05/06 13:54:28;;;;;;;4.53;1.90;;;;;;;14.80;38.71;99826.91;1762233;79;25800;-75
2021/05/06 13:56:56;;;;;;;5.30;2.02;;;;;;;14.81;38.33;99827.73;1771148;79;25778;-75
2021/05/06 13:59:24;;;;;;;2.83;2.15;;;;;;;14.76;38.30;99819.00;1765570;79;26556;-76
2021/05/06 14:01:56;;;;;;;2.30;1.90;;;;;;;14.83;39.23;99824.28;1765659;80;27518;-75
2021/05/06 14:04:24;;;;;;;3.50;1.72;;;;;;;14.91;38.89;99824.76;1673230;81;26242;-75
2021/05/06 14:06:52;;;;;;;2.70;1.85;;;;;;;14.95;38.74;99825.94;1695925;82;25443;-74
2021/05/06 14:09:20;;;;;;;2.98;1.67;;;;;;;14.95;37.53;99821.89;1725959;81;25584;-75
2021/05/06 14:11:50;;;;;;;2.77;2.08;;;;;;;14.96;38.25;99826.76;1722100;81;25565;-74
2021/05/06 14:14:17;;;;;;;2.80;1.85;;;;;;;14.93;38.06;99825.86;1727577;81;27612;-74
2021/05/06 14:16:45;;;;;;;4.37;2.10;;;;;;;14.95;38.23;99821.89;1716304;81;26113;-74
2021/05/06 14:19:14;;;;;;;3.40;2.30;;;;;;;15.00;39.23;99816.63;1696120;82;25592;-75
2021/05/06 14:21:46;;;;;;;5.37;1.92;;;;;;;14.95;38.89;99823.23;1721154;82;25659;-74
2021/05/06 14:24:14;;;;;;;3.92;2.00;;;;;;;14.85;37.64;99812.22;1653305;82;26055;-75
2021/05/06 14:26:45;;;;;;;4.15;1.95;;;;;;;14.71;38.57;99818.89;1673130;82;27619;-76
2021/05/06 14:29:12;;;;;;;2.33;1.80;;;;;;;14.47;38.64;99824.77;1699462;83;26430;-74
2021/05/06 14:31:40;;;;;;;4.65;2.08;;;;;;;14.24;38.67;99831.91;1718709;82;25719;-75
2021/05/06 14:34:07;;;;;;;3.58;1.67;;;;;;;14.01;38.62;99833.17;1676906;82;25765;-75
2021/05/06 14:36:34;;;;;;;4.22;1.70;;;;;;;13.87;39.38;99833.34;1669932;83;26636;-75
2021/05/06 14:39:03;;;;;;;5.35;2.20;;;;;;;13.87;39.60;99844.62;1632508;83;27370;-74
2021/05/06 14:41:30;;;;;;;3.70;1.60;;;;;;;13.89;40.22;99841.18;1720369;82;25778;-74
2021/05/06 14:43:58;;;;;;;3.35;1.90;;;;;;;13.99;40.56;99823.95;1653878;84;26471;-73
2021/05/06 14:46:25;;;;;;;5.55;2.58;;;;;;;14.12;41.19;99821.60;1641356;83;26215;-74
2021/05/06 14:48:52;;;;;;;14.18;11.90;;;;;;;14.27;40.26;99820.66;1719069;82;25642;-74
2021/05/06 14:51:20;;;;;;;9.98;8.98;;;;;;;14.47;40.91;99818.55;1690604;83;27555;-74
2021/05/06 14:53:47;;;;;;;17.62;15.80;;;;;;;14.69;40.15;99808.88;1632822;83;25894;-75
2021/05/06 14:56:15;;;;;;;5.10;4.60;;;;;;;14.79;39.74;99807.77;1673844;82;25727;-74
2021/05/06 14:58:42;;;;;;;11.48;7.92;;;;;;;14.83;39.13;99799.50;1682124;83;26726;-74
2021/05/06 15:01:09;;;;;;;3.75;2.70;;;;;;;14.86;38.98;99799.05;1697872;83;25794;-74
2021/05/06 15:03:37;;;;;;;5.50;2.25;;;;;;;14.77;39.21;99799.61;1654172;84;28457;-75
2021/05/06 15:06:04;;;;;;;4.58;2.67;;;;;;;14.70;39.17;99794.33;1658465;83;25769;-76
2021/05/06 15:08:32;;;;;;;7.47;4.55;;;;;;;14.65;39.72;99795.02;1634963;83;26439;-74
2021/05/06 15:10:59;;;;;;;2.47;1.80;;;;;;;14.57;39.05;99802.63;1699177;83;26124;-75
2021/05/06 15:13:27;;;;;;;2.83;2.02;;;;;;;14.32;37.48;99796.59;1656173;83;25759;-75
2021/05/06 15:15:54;;;;;;;3.52;1.70;;;;;;;14.13;37.96;99797.16;1670764;82;27554;-74